sensor_id;sensor_type;location;lat;lon;timestamp;P1;durP1;ratioP1;P2;durP2;ratioP2
69053;SDS011;56125;52.242;4.756;2023-04-06T00:01:34;8.68;;;4.68;;
69053;SDS011;56125;52.242;4.756;2023-04-06T00:06:35;7.57;;;4.53;;
69053;SDS011;56125;52.242;4.756;2023-04-06T00:11:36;7.68;;;4.40;;
69053;SDS011;56125;52.242;4.756;2023-04-06T00:16:37;7.38;;;4.13;;
69053;SDS011;56125;52.242;4.756;2023-04-06T00:21:38;7.18;;;3.85;;
69053;SDS011;56125;52.242;4.756;2023-04-06T00:26:39;7.43;;;3.80;;
69053;SDS011;56125;52.242;4.756;2023-04-06T00:31:40;4.82;;;3.53;;
69053;SDS011;56125;52.242;4.756;2023-04-06T00:36:41;6.13;;;3.70;;
69053;SDS011;56125;52.242;4.756;2023-04-06T00:41:45;6.65;;;3.88;;
69053;SDS011;56125;52.242;4.756;2023-04-06T00:46:49;5.10;;;3.60;;
69053;SDS011;56125;52.242;4.756;2023-04-06T00:51:50;5.97;;;3.38;;
69053;SDS011;56125;52.242;4.756;2023-04-06T00:56:51;5.65;;;3.45;;
69053;SDS011;56125;52.242;4.756;2023-04-06T01:01:52;6.07;;;3.20;;
69053;SDS011;56125;52.242;4.756;2023-04-06T01:06:53;5.10;;;3.30;;
69053;SDS011;56125;52.242;4.756;2023-04-06T01:11:55;5.07;;;3.17;;
69053;SDS011;56125;52.242;4.756;2023-04-06T01:16:57;4.13;;;2.90;;
69053;SDS011;56125;52.242;4.756;2023-04-06T01:22:00;5.82;;;3.05;;
69053;SDS011;56125;52.242;4.756;2023-04-06T01:27:01;3.92;;;2.97;;
69053;SDS011;56125;52.242;4.756;2023-04-06T01:32:03;5.32;;;3.85;;
69053;SDS011;56125;52.242;4.756;2023-04-06T01:37:04;4.60;;;2.97;;
69053;SDS011;56125;52.242;4.756;2023-04-06T01:42:05;4.97;;;3.08;;
69053;SDS011;56125;52.242;4.756;2023-04-06T01:47:06;3.75;;;2.80;;
69053;SDS011;56125;52.242;4.756;2023-04-06T01:52:07;3.65;;;2.95;;
69053;SDS011;56125;52.242;4.756;2023-04-06T01:57:09;3.97;;;3.00;;
69053;SDS011;56125;52.242;4.756;2023-04-06T02:02:11;5.40;;;2.58;;
69053;SDS011;56125;52.242;4.756;2023-04-06T02:07:13;5.60;;;3.00;;
69053;SDS011;56125;52.242;4.756;2023-04-06T02:12:14;3.90;;;2.80;;
69053;SDS011;56125;52.242;4.756;2023-04-06T02:17:15;5.72;;;2.83;;
69053;SDS011;56125;52.242;4.756;2023-04-06T02:22:16;4.60;;;3.10;;
69053;SDS011;56125;52.242;4.756;2023-04-06T02:27:17;4.50;;;2.90;;
69053;SDS011;56125;52.242;4.756;2023-04-06T02:32:18;5.53;;;3.40;;
69053;SDS011;56125;52.242;4.756;2023-04-06T02:37:20;3.65;;;2.67;;
69053;SDS011;56125;52.242;4.756;2023-04-06T02:42:21;3.70;;;2.42;;
69053;SDS011;56125;52.242;4.756;2023-04-06T02:47:22;3.50;;;2.42;;
69053;SDS011;56125;52.242;4.756;2023-04-06T02:52:23;4.20;;;2.95;;
69053;SDS011;56125;52.242;4.756;2023-04-06T02:57:24;4.20;;;2.55;;
69053;SDS011;56125;52.242;4.756;2023-04-06T03:02:25;3.90;;;2.70;;
69053;SDS011;56125;52.242;4.756;2023-04-06T03:07:26;3.70;;;2.38;;
69053;SDS011;56125;52.242;4.756;2023-04-06T03:12:27;3.90;;;2.67;;
69053;SDS011;56125;52.242;4.756;2023-04-06T03:17:28;3.63;;;2.80;;
69053;SDS011;56125;52.242;4.756;2023-04-06T03:22:29;3.72;;;2.50;;
69053;SDS011;56125;52.242;4.756;2023-04-06T03:27:30;3.13;;;2.58;;
69053;SDS011;56125;52.242;4.756;2023-04-06T03:32:31;3.47;;;2.30;;
69053;SDS011;56125;52.242;4.756;2023-04-06T03:37:32;3.63;;;2.47;;
69053;SDS011;56125;52.242;4.756;2023-04-06T03:42:33;4.40;;;2.53;;
69053;SDS011;56125;52.242;4.756;2023-04-06T03:47:34;3.40;;;2.33;;
69053;SDS011;56125;52.242;4.756;2023-04-06T03:52:35;5.10;;;2.60;;
69053;SDS011;56125;52.242;4.756;2023-04-06T03:57:36;3.80;;;2.67;;
69053;SDS011;56125;52.242;4.756;2023-04-06T04:02:38;2.90;;;2.30;;
69053;SDS011;56125;52.242;4.756;2023-04-06T04:07:39;3.83;;;2.42;;
69053;SDS011;56125;52.242;4.756;2023-04-06T04:12:40;3.33;;;2.70;;
69053;SDS011;56125;52.242;4.756;2023-04-06T04:17:41;4.70;;;2.50;;
69053;SDS011;56125;52.242;4.756;2023-04-06T04:22:47;4.00;;;2.70;;
69053;SDS011;56125;52.242;4.756;2023-04-06T04:27:48;3.95;;;2.25;;
69053;SDS011;56125;52.242;4.756;2023-04-06T04:32:49;5.85;;;2.83;;
69053;SDS011;56125;52.242;4.756;2023-04-06T04:37:50;3.88;;;2.38;;
69053;SDS011;56125;52.242;4.756;2023-04-06T04:42:51;3.38;;;2.50;;
69053;SDS011;56125;52.242;4.756;2023-04-06T04:47:52;4.22;;;2.70;;
69053;SDS011;56125;52.242;4.756;2023-04-06T04:52:53;5.95;;;2.90;;
69053;SDS011;56125;52.242;4.756;2023-04-06T04:57:54;5.03;;;3.63;;
69053;SDS011;56125;52.242;4.756;2023-04-06T05:02:55;5.10;;;3.20;;
69053;SDS011;56125;52.242;4.756;2023-04-06T05:07:56;5.93;;;3.28;;
69053;SDS011;56125;52.242;4.756;2023-04-06T05:12:57;5.35;;;2.92;;
69053;SDS011;56125;52.242;4.756;2023-04-06T05:17:58;7.05;;;3.42;;
69053;SDS011;56125;52.242;4.756;2023-04-06T05:22:59;5.43;;;3.50;;
69053;SDS011;56125;52.242;4.756;2023-04-06T05:28:00;7.05;;;4.07;;
69053;SDS011;56125;52.242;4.756;2023-04-06T05:33:01;8.55;;;3.42;;
69053;SDS011;56125;52.242;4.756;2023-04-06T05:38:03;6.68;;;3.20;;
69053;SDS011;56125;52.242;4.756;2023-04-06T05:43:06;7.53;;;4.00;;
69053;SDS011;56125;52.242;4.756;2023-04-06T05:48:08;6.05;;;3.75;;
69053;SDS011;56125;52.242;4.756;2023-04-06T05:53:09;6.80;;;3.88;;
69053;SDS011;56125;52.242;4.756;2023-04-06T05:58:10;5.88;;;3.80;;
69053;SDS011;56125;52.242;4.756;2023-04-06T06:03:12;5.25;;;3.40;;
69053;SDS011;56125;52.242;4.756;2023-04-06T06:08:13;6.57;;;3.97;;
69053;SDS011;56125;52.242;4.756;2023-04-06T06:13:14;7.25;;;4.07;;
69053;SDS011;56125;52.242;4.756;2023-04-06T06:18:15;7.45;;;4.10;;
69053;SDS011;56125;52.242;4.756;2023-04-06T06:23:16;5.60;;;3.92;;
69053;SDS011;56125;52.242;4.756;2023-04-06T06:28:17;6.50;;;3.80;;
69053;SDS011;56125;52.242;4.756;2023-04-06T06:33:18;7.13;;;3.80;;
69053;SDS011;56125;52.242;4.756;2023-04-06T06:38:20;5.32;;;3.97;;
69053;SDS011;56125;52.242;4.756;2023-04-06T06:43:21;6.47;;;3.88;;
69053;SDS011;56125;52.242;4.756;2023-04-06T06:48:22;5.93;;;3.63;;
69053;SDS011;56125;52.242;4.756;2023-04-06T06:53:23;7.23;;;4.10;;
69053;SDS011;56125;52.242;4.756;2023-04-06T06:58:24;4.47;;;3.45;;
69053;SDS011;56125;52.242;4.756;2023-04-06T07:03:25;8.00;;;4.23;;
69053;SDS011;56125;52.242;4.756;2023-04-06T07:08:27;8.48;;;4.80;;
69053;SDS011;56125;52.242;4.756;2023-04-06T07:13:28;7.07;;;3.80;;
69053;SDS011;56125;52.242;4.756;2023-04-06T07:18:29;7.70;;;4.78;;
69053;SDS011;56125;52.242;4.756;2023-04-06T07:23:30;8.70;;;4.60;;
69053;SDS011;56125;52.242;4.756;2023-04-06T07:28:31;8.50;;;4.90;;
69053;SDS011;56125;52.242;4.756;2023-04-06T07:33:32;5.93;;;4.00;;
69053;SDS011;56125;52.242;4.756;2023-04-06T07:38:33;7.43;;;4.25;;
69053;SDS011;56125;52.242;4.756;2023-04-06T07:43:34;7.17;;;4.33;;
69053;SDS011;56125;52.242;4.756;2023-04-06T07:48:35;8.40;;;3.97;;
69053;SDS011;56125;52.242;4.756;2023-04-06T07:53:37;6.83;;;4.47;;
69053;SDS011;56125;52.242;4.756;2023-04-06T07:58:38;7.60;;;4.38;;
69053;SDS011;56125;52.242;4.756;2023-04-06T08:03:39;7.40;;;4.40;;
69053;SDS011;56125;52.242;4.756;2023-04-06T08:08:41;11.80;;;5.32;;
69053;SDS011;56125;52.242;4.756;2023-04-06T08:13:42;6.40;;;4.50;;
69053;SDS011;56125;52.242;4.756;2023-04-06T08:18:43;8.38;;;4.55;;
69053;SDS011;56125;52.242;4.756;2023-04-06T08:23:44;8.00;;;4.67;;
69053;SDS011;56125;52.242;4.756;2023-04-06T08:28:46;8.98;;;4.53;;
69053;SDS011;56125;52.242;4.756;2023-04-06T08:33:47;6.47;;;3.93;;
69053;SDS011;56125;52.242;4.756;2023-04-06T08:38:48;7.40;;;4.53;;
69053;SDS011;56125;52.242;4.756;2023-04-06T08:43:54;9.27;;;4.30;;
69053;SDS011;56125;52.242;4.756;2023-04-06T08:48:58;9.45;;;4.80;;
69053;SDS011;56125;52.242;4.756;2023-04-06T08:54:01;7.07;;;4.30;;
69053;SDS011;56125;52.242;4.756;2023-04-06T08:59:02;7.47;;;4.68;;
69053;SDS011;56125;52.242;4.756;2023-04-06T09:04:04;8.63;;;4.90;;
69053;SDS011;56125;52.242;4.756;2023-04-06T09:09:09;9.23;;;4.25;;
69053;SDS011;56125;52.242;4.756;2023-04-06T09:14:10;9.60;;;5.27;;
69053;SDS011;56125;52.242;4.756;2023-04-06T09:19:11;8.20;;;4.53;;
69053;SDS011;56125;52.242;4.756;2023-04-06T09:24:13;5.93;;;3.73;;
69053;SDS011;56125;52.242;4.756;2023-04-06T09:29:24;9.10;;;3.80;;
69053;SDS011;56125;52.242;4.756;2023-04-06T09:34:27;5.97;;;3.97;;
69053;SDS011;56125;52.242;4.756;2023-04-06T09:39:28;7.20;;;3.70;;
69053;SDS011;56125;52.242;4.756;2023-04-06T09:44:29;6.53;;;3.80;;
69053;SDS011;56125;52.242;4.756;2023-04-06T09:49:30;6.70;;;3.47;;
69053;SDS011;56125;52.242;4.756;2023-04-06T09:54:33;5.93;;;3.60;;
69053;SDS011;56125;52.242;4.756;2023-04-06T10:10:17;7.57;;;3.38;;
69053;SDS011;56125;52.242;4.756;2023-04-06T10:15:18;5.47;;;3.10;;
69053;SDS011;56125;52.242;4.756;2023-04-06T10:20:39;5.93;;;2.78;;
69053;SDS011;56125;52.242;4.756;2023-04-06T10:25:53;5.47;;;2.72;;
69053;SDS011;56125;52.242;4.756;2023-04-06T10:30:59;3.80;;;2.35;;
69053;SDS011;56125;52.242;4.756;2023-04-06T10:36:13;3.78;;;2.58;;
69053;SDS011;56125;52.242;4.756;2023-04-06T10:41:16;3.00;;;2.15;;
69053;SDS011;56125;52.242;4.756;2023-04-06T10:46:24;3.58;;;2.20;;
69053;SDS011;56125;52.242;4.756;2023-04-06T10:51:32;4.72;;;2.40;;
69053;SDS011;56125;52.242;4.756;2023-04-06T10:56:33;4.80;;;2.20;;
69053;SDS011;56125;52.242;4.756;2023-04-06T11:01:37;3.10;;;2.10;;
69053;SDS011;56125;52.242;4.756;2023-04-06T11:06:38;3.75;;;2.20;;
69053;SDS011;56125;52.242;4.756;2023-04-06T11:11:39;4.97;;;1.80;;
69053;SDS011;56125;52.242;4.756;2023-04-06T11:16:40;3.28;;;2.30;;
69053;SDS011;56125;52.242;4.756;2023-04-06T11:21:45;2.97;;;1.80;;
69053;SDS011;56125;52.242;4.756;2023-04-06T11:26:51;5.53;;;1.98;;
69053;SDS011;56125;52.242;4.756;2023-04-06T11:32:03;3.27;;;2.03;;
69053;SDS011;56125;52.242;4.756;2023-04-06T11:37:09;2.63;;;1.88;;
69053;SDS011;56125;52.242;4.756;2023-04-06T11:42:11;2.23;;;1.47;;
69053;SDS011;56125;52.242;4.756;2023-04-06T11:47:13;2.13;;;1.50;;
69053;SDS011;56125;52.242;4.756;2023-04-06T11:52:21;1.67;;;1.37;;
69053;SDS011;56125;52.242;4.756;2023-04-06T11:57:24;3.47;;;1.80;;
69053;SDS011;56125;52.242;4.756;2023-04-06T12:02:25;3.33;;;1.63;;
69053;SDS011;56125;52.242;4.756;2023-04-06T12:07:27;2.58;;;1.63;;
69053;SDS011;56125;52.242;4.756;2023-04-06T12:12:30;3.53;;;1.90;;
69053;SDS011;56125;52.242;4.756;2023-04-06T12:17:31;2.42;;;1.80;;
69053;SDS011;56125;52.242;4.756;2023-04-06T12:22:32;3.10;;;1.50;;
69053;SDS011;56125;52.242;4.756;2023-04-06T12:27:33;3.78;;;1.60;;
69053;SDS011;56125;52.242;4.756;2023-04-06T12:32:34;3.67;;;1.70;;
69053;SDS011;56125;52.242;4.756;2023-04-06T12:37:35;2.40;;;1.88;;
69053;SDS011;56125;52.242;4.756;2023-04-06T12:42:38;2.37;;;1.70;;
69053;SDS011;56125;52.242;4.756;2023-04-06T12:47:39;3.00;;;1.60;;
69053;SDS011;56125;52.242;4.756;2023-04-06T12:52:40;1.87;;;1.63;;
69053;SDS011;56125;52.242;4.756;2023-04-06T12:57:41;2.05;;;1.58;;
69053;SDS011;56125;52.242;4.756;2023-04-06T13:02:42;2.40;;;1.60;;
69053;SDS011;56125;52.242;4.756;2023-04-06T13:07:47;2.15;;;1.60;;
69053;SDS011;56125;52.242;4.756;2023-04-06T13:12:48;2.80;;;1.37;;
69053;SDS011;56125;52.242;4.756;2023-04-06T13:17:49;2.22;;;1.38;;
69053;SDS011;56125;52.242;4.756;2023-04-06T13:22:50;2.40;;;1.80;;
69053;SDS011;56125;52.242;4.756;2023-04-06T13:27:51;2.95;;;1.45;;
69053;SDS011;56125;52.242;4.756;2023-04-06T13:32:52;2.07;;;1.43;;
69053;SDS011;56125;52.242;4.756;2023-04-06T13:37:53;3.08;;;1.60;;
69053;SDS011;56125;52.242;4.756;2023-04-06T13:42:54;1.87;;;1.50;;
69053;SDS011;56125;52.242;4.756;2023-04-06T13:47:55;2.30;;;1.45;;
69053;SDS011;56125;52.242;4.756;2023-04-06T13:52:56;1.77;;;1.60;;
69053;SDS011;56125;52.242;4.756;2023-04-06T13:57:57;2.10;;;1.65;;
69053;SDS011;56125;52.242;4.756;2023-04-06T14:02:58;3.27;;;1.70;;
69053;SDS011;56125;52.242;4.756;2023-04-06T14:07:59;2.25;;;1.50;;
69053;SDS011;56125;52.242;4.756;2023-04-06T14:13:00;2.10;;;1.70;;
69053;SDS011;56125;52.242;4.756;2023-04-06T14:18:02;3.03;;;1.77;;
69053;SDS011;56125;52.242;4.756;2023-04-06T14:23:03;2.20;;;1.50;;
69053;SDS011;56125;52.242;4.756;2023-04-06T14:28:04;1.90;;;1.60;;
69053;SDS011;56125;52.242;4.756;2023-04-06T14:33:05;2.80;;;1.53;;
69053;SDS011;56125;52.242;4.756;2023-04-06T14:38:07;2.00;;;1.48;;
69053;SDS011;56125;52.242;4.756;2023-04-06T14:43:08;4.05;;;1.33;;
69053;SDS011;56125;52.242;4.756;2023-04-06T14:48:09;1.65;;;1.15;;
69053;SDS011;56125;52.242;4.756;2023-04-06T14:53:12;1.90;;;1.45;;
69053;SDS011;56125;52.242;4.756;2023-04-06T14:58:13;2.30;;;1.50;;
69053;SDS011;56125;52.242;4.756;2023-04-06T15:03:14;3.58;;;1.52;;
69053;SDS011;56125;52.242;4.756;2023-04-06T15:08:16;1.83;;;1.33;;
69053;SDS011;56125;52.242;4.756;2023-04-06T15:13:17;3.30;;;1.60;;
69053;SDS011;56125;52.242;4.756;2023-04-06T15:18:18;1.98;;;1.70;;
69053;SDS011;56125;52.242;4.756;2023-04-06T15:23:20;2.40;;;1.63;;
69053;SDS011;56125;52.242;4.756;2023-04-06T15:28:21;1.80;;;1.25;;
69053;SDS011;56125;52.242;4.756;2023-04-06T15:33:22;2.95;;;1.30;;
69053;SDS011;56125;52.242;4.756;2023-04-06T15:38:23;3.40;;;1.38;;
69053;SDS011;56125;52.242;4.756;2023-04-06T15:43:24;1.50;;;1.40;;
69053;SDS011;56125;52.242;4.756;2023-04-06T15:48:25;1.52;;;1.30;;
69053;SDS011;56125;52.242;4.756;2023-04-06T15:53:31;1.73;;;1.33;;
69053;SDS011;56125;52.242;4.756;2023-04-06T15:58:32;1.63;;;1.25;;
69053;SDS011;56125;52.242;4.756;2023-04-06T16:03:33;2.00;;;1.30;;
69053;SDS011;56125;52.242;4.756;2023-04-06T16:08:35;1.45;;;1.27;;
69053;SDS011;56125;52.242;4.756;2023-04-06T16:13:36;1.88;;;1.67;;
69053;SDS011;56125;52.242;4.756;2023-04-06T16:18:37;2.17;;;1.48;;
69053;SDS011;56125;52.242;4.756;2023-04-06T16:23:38;2.13;;;1.52;;
69053;SDS011;56125;52.242;4.756;2023-04-06T16:28:41;3.55;;;1.60;;
69053;SDS011;56125;52.242;4.756;2023-04-06T16:33:42;1.33;;;1.20;;
69053;SDS011;56125;52.242;4.756;2023-04-06T16:38:43;1.70;;;1.00;;
69053;SDS011;56125;52.242;4.756;2023-04-06T16:43:44;1.60;;;1.40;;
69053;SDS011;56125;52.242;4.756;2023-04-06T16:48:45;1.80;;;1.33;;
69053;SDS011;56125;52.242;4.756;2023-04-06T16:53:46;1.50;;;1.20;;
69053;SDS011;56125;52.242;4.756;2023-04-06T16:58:48;2.80;;;1.20;;
69053;SDS011;56125;52.242;4.756;2023-04-06T17:03:49;1.60;;;1.30;;
69053;SDS011;56125;52.242;4.756;2023-04-06T17:08:51;1.63;;;0.90;;
69053;SDS011;56125;52.242;4.756;2023-04-06T17:13:53;1.55;;;1.23;;
69053;SDS011;56125;52.242;4.756;2023-04-06T17:18:54;1.57;;;1.00;;
69053;SDS011;56125;52.242;4.756;2023-04-06T17:23:56;1.92;;;1.15;;
69053;SDS011;56125;52.242;4.756;2023-04-06T17:28:57;1.87;;;0.90;;
69053;SDS011;56125;52.242;4.756;2023-04-06T17:33:58;2.20;;;1.00;;
69053;SDS011;56125;52.242;4.756;2023-04-06T17:38:59;1.00;;;0.90;;
69053;SDS011;56125;52.242;4.756;2023-04-06T17:44:01;1.60;;;1.10;;
69053;SDS011;56125;52.242;4.756;2023-04-06T17:49:02;2.97;;;1.13;;
69053;SDS011;56125;52.242;4.756;2023-04-06T17:54:03;3.92;;;1.10;;
69053;SDS011;56125;52.242;4.756;2023-04-06T17:59:04;2.00;;;1.10;;
69053;SDS011;56125;52.242;4.756;2023-04-06T18:04:07;2.72;;;1.00;;
69053;SDS011;56125;52.242;4.756;2023-04-06T18:09:08;2.10;;;1.10;;
69053;SDS011;56125;52.242;4.756;2023-04-06T18:14:09;2.13;;;0.98;;
69053;SDS011;56125;52.242;4.756;2023-04-06T18:19:12;2.03;;;0.80;;
69053;SDS011;56125;52.242;4.756;2023-04-06T18:24:13;2.15;;;1.20;;
69053;SDS011;56125;52.242;4.756;2023-04-06T18:29:14;5.07;;;1.30;;
69053;SDS011;56125;52.242;4.756;2023-04-06T18:34:15;2.63;;;1.00;;
69053;SDS011;56125;52.242;4.756;2023-04-06T18:39:16;1.40;;;0.97;;
69053;SDS011;56125;52.242;4.756;2023-04-06T18:44:17;1.20;;;0.82;;
69053;SDS011;56125;52.242;4.756;2023-04-06T18:49:18;1.97;;;0.97;;
69053;SDS011;56125;52.242;4.756;2023-04-06T18:54:19;3.38;;;1.10;;
69053;SDS011;56125;52.242;4.756;2023-04-06T18:59:21;1.13;;;1.00;;
69053;SDS011;56125;52.242;4.756;2023-04-06T19:04:22;3.28;;;0.90;;
69053;SDS011;56125;52.242;4.756;2023-04-06T19:09:23;1.27;;;0.93;;
69053;SDS011;56125;52.242;4.756;2023-04-06T19:14:24;1.83;;;1.00;;
69053;SDS011;56125;52.242;4.756;2023-04-06T19:19:25;3.47;;;1.30;;
69053;SDS011;56125;52.242;4.756;2023-04-06T19:24:26;2.70;;;0.98;;
69053;SDS011;56125;52.242;4.756;2023-04-06T19:29:27;1.83;;;1.20;;
69053;SDS011;56125;52.242;4.756;2023-04-06T19:34:28;1.38;;;0.90;;
69053;SDS011;56125;52.242;4.756;2023-04-06T19:39:29;1.50;;;1.00;;
69053;SDS011;56125;52.242;4.756;2023-04-06T19:44:30;1.38;;;0.80;;
69053;SDS011;56125;52.242;4.756;2023-04-06T19:49:31;1.40;;;1.00;;
69053;SDS011;56125;52.242;4.756;2023-04-06T19:54:32;2.90;;;1.08;;
69053;SDS011;56125;52.242;4.756;2023-04-06T19:59:35;2.40;;;1.07;;
69053;SDS011;56125;52.242;4.756;2023-04-06T20:04:36;1.52;;;0.90;;
69053;SDS011;56125;52.242;4.756;2023-04-06T20:09:37;1.50;;;1.00;;
69053;SDS011;56125;52.242;4.756;2023-04-06T20:14:38;1.45;;;1.00;;
69053;SDS011;56125;52.242;4.756;2023-04-06T20:19:39;2.58;;;1.00;;
69053;SDS011;56125;52.242;4.756;2023-04-06T20:24:40;7.13;;;2.67;;
69053;SDS011;56125;52.242;4.756;2023-04-06T20:29:41;14.05;;;4.13;;
69053;SDS011;56125;52.242;4.756;2023-04-06T20:34:42;3.03;;;1.52;;
69053;SDS011;56125;52.242;4.756;2023-04-06T20:39:43;2.03;;;1.20;;
69053;SDS011;56125;52.242;4.756;2023-04-06T20:44:44;1.40;;;0.77;;
69053;SDS011;56125;52.242;4.756;2023-04-06T20:49:46;1.77;;;0.93;;
69053;SDS011;56125;52.242;4.756;2023-04-06T20:54:47;1.17;;;0.90;;
69053;SDS011;56125;52.242;4.756;2023-04-06T20:59:49;1.02;;;0.80;;
69053;SDS011;56125;52.242;4.756;2023-04-06T21:04:50;1.23;;;0.90;;
69053;SDS011;56125;52.242;4.756;2023-04-06T21:09:51;1.13;;;0.80;;
69053;SDS011;56125;52.242;4.756;2023-04-06T21:14:53;2.10;;;0.80;;
69053;SDS011;56125;52.242;4.756;2023-04-06T21:19:54;1.48;;;0.73;;
69053;SDS011;56125;52.242;4.756;2023-04-06T21:24:55;1.50;;;0.98;;
69053;SDS011;56125;52.242;4.756;2023-04-06T21:29:56;1.15;;;0.90;;
69053;SDS011;56125;52.242;4.756;2023-04-06T21:34:57;2.17;;;0.70;;
69053;SDS011;56125;52.242;4.756;2023-04-06T21:39:58;1.20;;;0.70;;
69053;SDS011;56125;52.242;4.756;2023-04-06T21:45:01;1.88;;;0.80;;
69053;SDS011;56125;52.242;4.756;2023-04-06T21:50:02;1.05;;;0.68;;
69053;SDS011;56125;52.242;4.756;2023-04-06T21:55:03;1.55;;;0.77;;
69053;SDS011;56125;52.242;4.756;2023-04-06T22:00:05;1.73;;;0.82;;
69053;SDS011;56125;52.242;4.756;2023-04-06T22:05:09;1.50;;;0.80;;
69053;SDS011;56125;52.242;4.756;2023-04-06T22:10:10;1.52;;;0.82;;
69053;SDS011;56125;52.242;4.756;2023-04-06T22:15:11;0.98;;;0.70;;
69053;SDS011;56125;52.242;4.756;2023-04-06T22:20:12;1.02;;;0.70;;
69053;SDS011;56125;52.242;4.756;2023-04-06T22:25:13;1.35;;;0.70;;
69053;SDS011;56125;52.242;4.756;2023-04-06T22:30:15;1.83;;;0.90;;
69053;SDS011;56125;52.242;4.756;2023-04-06T22:35:16;1.27;;;1.00;;
69053;SDS011;56125;52.242;4.756;2023-04-06T22:40:17;1.85;;;0.90;;
69053;SDS011;56125;52.242;4.756;2023-04-06T22:45:18;1.42;;;0.90;;
69053;SDS011;56125;52.242;4.756;2023-04-06T22:50:19;1.20;;;0.80;;
69053;SDS011;56125;52.242;4.756;2023-04-06T22:55:21;0.93;;;0.73;;
69053;SDS011;56125;52.242;4.756;2023-04-06T23:00:22;1.30;;;0.80;;
69053;SDS011;56125;52.242;4.756;2023-04-06T23:05:23;1.63;;;0.73;;
69053;SDS011;56125;52.242;4.756;2023-04-06T23:10:24;1.23;;;0.70;;
69053;SDS011;56125;52.242;4.756;2023-04-06T23:15:25;1.30;;;0.90;;
69053;SDS011;56125;52.242;4.756;2023-04-06T23:20:26;1.50;;;0.65;;
69053;SDS011;56125;52.242;4.756;2023-04-06T23:25:27;1.75;;;0.80;;
69053;SDS011;56125;52.242;4.756;2023-04-06T23:30:28;0.95;;;0.70;;
69053;SDS011;56125;52.242;4.756;2023-04-06T23:35:29;1.30;;;0.88;;
69053;SDS011;56125;52.242;4.756;2023-04-06T23:40:30;2.30;;;0.88;;
69053;SDS011;56125;52.242;4.756;2023-04-06T23:45:31;2.97;;;0.80;;
69053;SDS011;56125;52.242;4.756;2023-04-06T23:50:35;1.23;;;0.70;;
69053;SDS011;56125;52.242;4.756;2023-04-06T23:55:37;0.80;;;0.70;;
